createdAt,value
2022-11-05T05:02:52.715Z,99663.31
2022-11-05T05:06:55.348Z,99668.31
2022-11-05T05:11:02.238Z,99674.06
2022-11-05T05:15:05.562Z,99676.47
2022-11-05T05:19:09.490Z,99675.53
2022-11-05T05:23:12.451Z,99675.34
2022-11-05T05:27:15.442Z,99683.00
2022-11-05T05:31:18.013Z,99680.72
2022-11-05T05:35:21.960Z,99667.16
2022-11-05T05:39:24.632Z,99684.06
2022-11-05T05:43:27.353Z,99686.75
2022-11-05T05:47:29.947Z,99690.53
2022-11-05T05:51:33.856Z,99706.97
2022-11-05T05:55:36.519Z,99710.09
2022-11-05T05:59:39.089Z,99724.16
2022-11-05T06:03:41.821Z,99727.50
2022-11-05T06:07:45.787Z,99721.00
2022-11-05T06:11:48.447Z,99725.97
2022-11-05T06:15:51.103Z,99730.53
2022-11-05T06:19:53.697Z,99738.00
2022-11-05T06:23:57.634Z,99740.03
2022-11-05T06:28:00.772Z,99746.88
2022-11-05T06:32:03.385Z,99750.59
2022-11-05T06:36:07.577Z,99749.13
2022-11-05T06:40:12.316Z,99754.69
2022-11-05T06:44:14.911Z,99754.50
2022-11-05T06:48:17.506Z,99766.19
2022-11-05T06:52:20.926Z,99769.41
2022-11-05T06:56:25.343Z,99777.38
2022-11-05T07:00:28.007Z,99775.25
2022-11-05T07:04:30.642Z,99788.09
2022-11-05T07:08:34.189Z,99784.41
2022-11-05T07:12:37.981Z,99775.06
2022-11-05T07:16:40.546Z,99780.06
2022-11-05T07:20:43.208Z,99780.50
2022-11-05T07:24:47.304Z,99807.44
2022-11-05T07:28:51.468Z,99814.75
2022-11-05T07:32:54.122Z,99814.38
2022-11-05T07:36:56.758Z,99825.16
2022-11-05T07:41:00.400Z,99830.00
2022-11-05T07:45:04.958Z,99845.75
2022-11-05T07:49:07.586Z,99848.31
2022-11-05T07:53:12.519Z,99856.38
2022-11-05T07:57:15.311Z,99866.53
2022-11-05T08:01:19.439Z,99867.22
2022-11-05T08:05:22.227Z,99863.69
2022-11-05T08:09:24.828Z,99867.41
2022-11-05T08:13:27.438Z,99869.28
2022-11-05T08:17:31.422Z,99879.75
2022-11-05T08:21:33.996Z,99889.31
2022-11-05T08:25:36.868Z,99886.22
2022-11-05T08:29:39.444Z,99886.84
2022-11-05T08:33:43.637Z,99886.44
2022-11-05T08:37:46.271Z,99888.63
2022-11-05T08:41:50.095Z,99895.94
2022-11-05T08:45:54.034Z,99903.25
2022-11-05T08:49:57.954Z,99899.13
2022-11-05T08:54:00.564Z,99899.56
2022-11-05T08:58:04.906Z,99912.75
2022-11-05T09:02:07.839Z,99914.59
2022-11-05T09:06:11.937Z,99907.59
2022-11-05T09:10:14.601Z,99922.16
2022-11-05T09:14:17.245Z,99919.25
2022-11-05T09:18:21.440Z,99923.72
2022-11-05T09:22:25.552Z,99923.72
2022-11-05T09:26:28.175Z,99928.94
2022-11-05T09:30:30.783Z,99925.38
2022-11-05T09:34:33.692Z,99937.19
2022-11-05T09:38:37.647Z,99934.16
2022-11-05T09:42:43.626Z,99934.56
2022-11-05T09:46:50.949Z,99940.38
2022-11-05T09:50:54.617Z,99935.81
2022-11-05T09:54:59.302Z,99937.84
2022-11-05T09:59:07.217Z,99938.00
2022-11-05T10:03:15.042Z,99935.03
2022-11-05T10:07:22.281Z,99935.47
2022-11-05T10:11:32.705Z,99943.09
2022-11-05T10:15:40.389Z,99936.50
2022-11-05T10:19:47.030Z,99945.81
2022-11-05T10:23:49.910Z,99934.63
2022-11-05T10:27:55.904Z,99940.06
2022-11-05T10:32:00.949Z,99954.97
2022-11-05T10:36:07.086Z,99946.94
2022-11-05T10:40:17.481Z,99951.16
2022-11-05T10:44:36.706Z,99955.28
2022-11-05T10:48:52.986Z,99952.72
2022-11-05T10:52:59.758Z,99958.22
2022-11-05T10:57:24.822Z,99948.88
2022-11-05T11:01:30.467Z,99951.03
2022-11-05T11:05:36.193Z,99955.06
2022-11-05T11:09:39.489Z,99950.28
2022-11-05T11:13:59.105Z,99943.81
2022-11-05T11:18:27.957Z,99949.34
2022-11-05T11:22:30.586Z,99945.25
2022-11-05T11:26:34.913Z,99943.75
2022-11-05T11:30:37.593Z,99949.06
2022-11-05T11:34:43.452Z,99949.66
2022-11-05T11:38:47.078Z,99948.09
2022-11-05T11:42:54.401Z,99943.06
2022-11-05T11:47:01.088Z,99936.16
2022-11-05T11:51:18.237Z,99937.78
2022-11-05T11:55:23.129Z,99937.53
2022-11-05T11:59:53.851Z,99943.50
2022-11-05T12:03:56.079Z,99947.16
2022-11-05T12:08:11.149Z,99935.31
2022-11-05T12:12:15.391Z,99929.16
2022-11-05T12:16:30.330Z,99933.41
2022-11-05T12:20:57.983Z,99917.88
2022-11-05T12:25:22.547Z,99913.00
2022-11-05T12:29:49.283Z,99909.44
2022-11-05T12:34:03.415Z,99907.78
2022-11-05T12:38:16.281Z,99899.22
2022-11-05T12:42:33.933Z,99878.94
2022-11-05T12:46:41.020Z,99895.88
2022-11-05T12:50:46.356Z,99897.75
2022-11-05T12:55:01.023Z,99885.84
2022-11-05T12:59:12.162Z,99885.38
2022-11-05T13:03:32.632Z,99890.59
2022-11-05T13:07:40.070Z,99892.09
2022-11-05T13:11:48.049Z,99891.81
2022-11-05T13:15:55.875Z,99883.19
2022-11-05T13:20:03.848Z,99894.28
2022-11-05T13:24:13.633Z,99886.53
2022-11-05T13:28:22.916Z,99894.06
2022-11-05T13:32:31.154Z,99890.00
2022-11-05T13:36:57.114Z,99890.91
2022-11-05T13:41:13.289Z,99885.44
2022-11-05T13:45:53.428Z,99887.84
2022-11-05T13:50:14.674Z,99894.97
2022-11-05T13:55:08.128Z,99896.03
2022-11-05T13:59:55.428Z,99892.38
2022-11-05T14:03:58.483Z,99895.63
2022-11-05T14:08:10.150Z,99891.81
2022-11-05T14:12:21.573Z,99890.91
2022-11-05T14:16:26.436Z,99900.88
2022-11-05T14:20:57.535Z,99892.94
2022-11-05T14:25:02.586Z,99905.13
2022-11-05T14:29:38.189Z,99896.06
2022-11-05T14:33:40.986Z,99898.50
2022-11-05T14:37:52.831Z,99907.78
2022-11-05T14:42:03.604Z,99903.72
2022-11-05T14:46:07.861Z,99904.06
2022-11-05T14:50:18.657Z,99915.97
2022-11-05T14:54:24.034Z,99916.25
2022-11-05T14:58:36.902Z,99915.41
2022-11-05T15:02:39.604Z,99915.66
2022-11-05T15:07:33.142Z,99912.34
2022-11-05T15:11:39.817Z,99924.50
2022-11-05T15:15:47.946Z,99930.38
2022-11-05T15:19:53.034Z,99937.69
2022-11-05T15:23:57.748Z,99935.41
2022-11-05T15:28:06.280Z,99942.06
2022-11-05T15:32:17.345Z,99940.78
2022-11-05T15:36:24.676Z,99942.22
2022-11-05T15:40:31.823Z,99949.66
2022-11-05T15:44:41.313Z,99947.97
2022-11-05T15:48:49.820Z,99949.16
2022-11-05T15:52:54.606Z,99944.56
2022-11-05T15:56:59.629Z,99940.63
2022-11-05T16:01:02.272Z,99943.22
2022-11-05T16:05:13.461Z,99950.28
2022-11-05T16:09:23.023Z,99959.09
2022-11-05T16:13:33.124Z,99965.66
2022-11-05T16:17:47.575Z,99961.63
2022-11-05T16:21:57.694Z,99961.00
2022-11-05T16:26:01.869Z,99965.66
2022-11-05T16:30:04.987Z,99959.75
2022-11-05T16:34:07.946Z,99955.78
2022-11-05T16:38:14.295Z,99945.91
2022-11-05T16:42:38.883Z,99942.88
2022-11-05T16:46:45.159Z,99947.88
2022-11-05T16:50:48.144Z,99953.22
2022-11-05T16:54:52.097Z,99962.91
2022-11-05T16:58:54.871Z,99957.47
2022-11-05T17:02:57.691Z,99950.19
2022-11-05T17:07:00.621Z,99957.00
2022-11-05T17:11:04.971Z,99970.03
2022-11-05T17:15:17.820Z,99962.88
2022-11-05T17:19:20.453Z,99971.94
2022-11-05T17:23:26.614Z,99971.66
2022-11-05T17:27:30.609Z,99977.69
2022-11-05T17:31:33.333Z,99969.16
2022-11-05T17:35:38.876Z,99958.56
2022-11-05T17:39:41.529Z,99973.50
2022-11-05T17:43:45.855Z,99974.22
2022-11-05T17:47:48.440Z,99976.75
2022-11-05T17:51:51.182Z,99988.44
2022-11-05T17:55:53.828Z,99993.84
2022-11-05T17:59:58.372Z,99991.41
2022-11-05T18:04:07.266Z,99995.97
2022-11-05T18:08:12.459Z,100004.47
2022-11-05T18:12:15.101Z,100005.16
2022-11-05T18:16:19.077Z,100011.66
2022-11-05T18:20:21.922Z,100005.06
2022-11-05T18:24:24.658Z,100008.41
2022-11-05T18:28:29.890Z,100008.63
2022-11-05T18:32:34.171Z,100003.94
2022-11-05T18:36:37.077Z,100005.09
2022-11-05T18:40:40.072Z,100010.00
2022-11-05T18:44:42.788Z,100009.81
2022-11-05T18:48:47.113Z,100000.16
2022-11-05T18:52:49.684Z,100001.84
2022-11-05T18:56:52.442Z,100006.47
2022-11-05T19:00:55.057Z,100005.72
2022-11-05T19:09:21.674Z,100009.06
2022-11-05T19:13:24.316Z,100001.81
2022-11-05T19:17:27.001Z,100000.78
2022-11-05T19:21:31.714Z,99986.59
2022-11-05T19:25:34.402Z,99993.19
2022-11-05T19:29:37.046Z,99993.34
2022-11-05T19:33:39.675Z,99996.41
2022-11-05T19:37:43.915Z,100004.56
2022-11-05T19:41:47.745Z,100005.88
2022-11-05T19:45:50.436Z,100001.25
2022-11-05T19:49:53.112Z,99999.84
2022-11-05T19:53:57.673Z,100004.09
2022-11-05T19:58:00.441Z,100003.88
2022-11-05T20:02:03.232Z,100003.59
2022-11-05T20:06:08.711Z,100001.78
2022-11-05T20:10:12.716Z,100008.47
2022-11-05T20:14:15.416Z,100001.72
2022-11-05T20:18:18.320Z,100001.00
2022-11-05T20:22:21.161Z,100000.41
2022-11-05T20:26:25.183Z,99993.25
2022-11-05T20:30:27.891Z,100009.94
2022-11-05T20:34:30.985Z,100003.88
2022-11-05T20:38:34.231Z,100005.66
2022-11-05T20:42:38.277Z,100008.03
2022-11-05T20:46:41.337Z,100009.44
2022-11-05T20:50:44.976Z,100013.25
2022-11-05T20:54:47.937Z,100010.06
2022-11-05T20:58:52.738Z,100001.63
2022-11-05T21:02:55.535Z,100003.31
2022-11-05T21:06:58.263Z,100014.25
2022-11-05T21:11:01.603Z,100004.28
2022-11-05T21:15:06.657Z,100005.88
2022-11-05T21:19:09.623Z,100017.94
2022-11-05T21:23:12.420Z,100002.53
2022-11-05T21:27:15.027Z,100013.63
2022-11-05T21:31:19.101Z,100022.38
2022-11-05T21:35:21.741Z,100013.78
2022-11-05T21:39:24.473Z,100017.75
2022-11-05T21:43:27.073Z,100014.41
2022-11-05T21:47:31.759Z,100020.59
2022-11-05T21:51:52.275Z,100014.50
2022-11-05T21:56:12.567Z,100009.03
